createdAt,value
2019-04-22T00:01:56.999Z,17.70
2019-04-22T00:04:37.065Z,15.75
2019-04-22T00:07:15.849Z,16.70
2019-04-22T00:09:59.595Z,16.42
2019-04-22T00:12:34.107Z,16.05
2019-04-22T00:15:09.791Z,16.93
2019-04-22T00:18:00.232Z,16.02
2019-04-22T00:20:23.160Z,16.00
2019-04-22T00:22:51.931Z,17.23
2019-04-22T00:25:48.232Z,16.02
2019-04-22T00:28:23.287Z,15.70
2019-04-22T00:30:56.245Z,16.42
2019-04-22T00:33:29.077Z,15.68
2019-04-22T00:36:02.719Z,16.20
2019-04-22T00:41:08.217Z,16.05
2019-04-22T00:43:41.175Z,16.32
2019-04-22T00:46:10.957Z,16.62
2019-04-22T00:48:57.632Z,17.87
2019-04-22T00:51:25.287Z,17.67
2019-04-22T00:53:57.789Z,18.55
2019-04-22T00:56:27.893Z,18.30
2019-04-22T00:59:22.105Z,17.42
2019-04-22T01:01:52.569Z,17.30
2019-04-22T01:04:35.150Z,18.27
2019-04-22T01:07:02.005Z,18.00
2019-04-22T01:09:58.933Z,17.92
2019-04-22T01:12:26.103Z,18.02
2019-04-22T01:15:05.771Z,17.37
2019-04-22T01:17:34.271Z,17.25
2019-04-22T01:20:25.842Z,16.55
2019-04-22T01:22:38.278Z,17.67
2019-04-22T01:25:12.949Z,17.35
2019-04-22T01:27:41.489Z,17.73
2019-04-22T01:30:13.962Z,17.25
2019-04-22T01:32:37.089Z,18.05
2019-04-22T01:35:12.998Z,19.20
2019-04-22T01:37:52.032Z,17.40
2019-04-22T01:40:31.568Z,17.52
2019-04-22T01:43:15.073Z,18.10
2019-04-22T01:45:42.183Z,18.52
2019-04-22T01:48:12.815Z,18.77
2019-04-22T01:50:43.117Z,18.32
2019-04-22T01:53:21.326Z,18.48
2019-04-22T01:55:54.741Z,16.75
2019-04-22T01:58:28.882Z,17.42
2019-04-22T02:01:05.950Z,17.42
2019-04-22T02:03:39.854Z,17.70
2019-04-22T02:06:30.242Z,18.30
2019-04-22T02:09:00.591Z,18.92
2019-04-22T02:11:33.877Z,18.62
2019-04-22T02:14:05.050Z,18.65
2019-04-22T02:19:19.226Z,19.07
2019-04-22T02:21:42.866Z,18.35
2019-04-22T02:24:18.311Z,19.73
2019-04-22T02:26:56.783Z,19.40
2019-04-22T02:29:30.016Z,18.02
2019-04-22T02:32:17.211Z,19.05
2019-04-22T02:34:49.670Z,18.50
2019-04-22T02:37:12.482Z,18.37
2019-04-22T02:39:54.971Z,19.82
2019-04-22T02:44:42.767Z,17.92
2019-04-22T02:47:23.453Z,19.12
2019-04-22T02:55:02.239Z,19.23
2019-04-22T02:57:35.469Z,18.85
2019-04-22T03:00:21.531Z,19.70
2019-04-22T03:05:34.636Z,20.85
2019-04-22T03:07:58.948Z,21.23
2019-04-22T03:10:29.415Z,21.37
2019-04-22T03:13:01.117Z,20.70
2019-04-22T03:15:30.024Z,20.43
2019-04-22T03:18:03.066Z,19.33
2019-04-22T03:20:41.554Z,19.93
2019-04-22T03:23:29.668Z,19.93
2019-04-22T03:28:30.956Z,20.17
2019-04-22T03:31:35.875Z,20.25
2019-04-22T03:34:17.755Z,18.57
2019-04-22T03:39:29.944Z,19.80
2019-04-22T03:41:57.233Z,20.32
2019-04-22T03:44:23.605Z,19.82
2019-04-22T03:47:01.825Z,19.75
2019-04-22T04:04:59.482Z,22.40
2019-04-22T04:07:47.800Z,22.57
2019-04-22T04:10:25.889Z,21.63
2019-04-22T04:12:53.883Z,21.77
2019-04-22T04:17:55.005Z,21.40
2019-04-22T04:23:05.321Z,21.27
2019-04-22T04:25:32.579Z,22.50
2019-04-22T04:28:29.782Z,22.13
2019-04-22T04:33:09.283Z,22.87
2019-04-22T04:38:06.917Z,21.65
2019-04-22T04:41:06.219Z,21.75
2019-04-22T04:43:50.216Z,22.60
2019-04-22T04:46:13.880Z,20.70
2019-04-22T04:53:41.333Z,21.80
2019-04-22T04:56:27.829Z,20.43
2019-04-22T04:59:19.469Z,21.40
2019-04-22T05:04:25.498Z,20.32
2019-04-22T05:06:51.866Z,20.02
2019-04-22T05:10:09.714Z,19.87
2019-04-22T05:12:01.921Z,19.23
2019-04-22T05:14:28.905Z,19.75
2019-04-22T05:17:02.243Z,18.70
2019-04-22T05:19:59.074Z,18.77
2019-04-22T05:22:14.961Z,20.02
2019-04-22T05:24:44.046Z,19.07
2019-04-22T05:27:21.667Z,20.70
2019-04-22T05:32:37.072Z,20.90
2019-04-22T05:35:09.689Z,19.73
2019-04-22T05:37:45.542Z,20.23
2019-04-22T05:40:29.335Z,20.35
2019-04-22T05:43:11.073Z,19.57
2019-04-22T05:45:40.527Z,19.35
2019-04-22T05:48:15.782Z,19.25
2019-04-22T05:50:42.009Z,19.65
2019-04-22T05:53:11.493Z,17.98
2019-04-22T05:55:46.670Z,18.48
2019-04-22T05:58:17.077Z,16.67
2019-04-22T06:01:21.298Z,16.82
2019-04-22T06:03:08.584Z,17.62
2019-04-22T06:05:47.370Z,16.37
2019-04-22T06:08:23.240Z,16.82
2019-04-22T06:10:54.148Z,15.70
2019-04-22T06:13:18.144Z,15.88
2019-04-22T06:15:55.643Z,15.60
2019-04-22T06:18:27.134Z,16.25
2019-04-22T06:21:09.096Z,16.12
2019-04-22T06:23:34.578Z,16.80
2019-04-22T06:31:15.725Z,16.93
2019-04-22T06:33:43.515Z,15.03
2019-04-22T06:36:09.481Z,16.17
2019-04-22T06:38:39.863Z,15.32
2019-04-22T06:41:16.459Z,15.83
2019-04-22T06:43:40.818Z,14.23
2019-04-22T06:46:14.439Z,14.85
2019-04-22T06:48:40.414Z,14.45
2019-04-22T06:51:24.417Z,14.00
2019-04-22T06:53:48.245Z,13.15
2019-04-22T06:56:16.172Z,13.53
2019-04-22T06:58:45.772Z,13.58
2019-04-22T07:04:03.572Z,12.47
2019-04-22T07:06:26.152Z,11.73
2019-04-22T07:09:14.412Z,12.70
2019-04-22T07:11:18.848Z,11.15
2019-04-22T07:14:00.034Z,12.13
2019-04-22T07:19:01.897Z,9.55
2019-04-22T07:21:35.180Z,9.78
2019-04-22T07:26:32.711Z,9.78
2019-04-22T07:29:06.135Z,9.48
2019-04-22T07:31:52.666Z,10.23
2019-04-22T07:34:13.399Z,9.93
2019-04-22T07:39:04.476Z,9.93
2019-04-22T07:46:50.155Z,9.28
2019-04-22T07:49:33.846Z,8.08
2019-04-22T07:51:44.489Z,8.75
2019-04-22T07:54:16.332Z,8.73
2019-04-22T07:56:47.008Z,8.40
2019-04-22T07:59:22.440Z,8.05
2019-04-22T08:01:56.296Z,8.15
2019-04-22T08:07:24.477Z,7.72
2019-04-22T08:09:47.906Z,6.78
2019-04-22T08:12:32.254Z,6.42
2019-04-22T08:14:52.157Z,6.35
2019-04-22T08:17:45.134Z,6.00
2019-04-22T08:20:00.503Z,6.05
2019-04-22T08:22:34.094Z,5.92
2019-04-22T08:25:04.218Z,5.80
2019-04-22T08:27:42.802Z,5.65
2019-04-22T08:30:23.498Z,5.83
2019-04-22T08:32:47.452Z,4.67
2019-04-22T08:35:38.267Z,5.25
2019-04-22T08:38:11.400Z,4.80
2019-04-22T08:40:48.746Z,4.70
2019-04-22T08:43:20.497Z,4.92
2019-04-22T08:45:51.459Z,4.50
2019-04-22T08:48:15.129Z,4.67
2019-04-22T08:51:00.592Z,4.67
2019-04-22T08:53:31.436Z,5.05
2019-04-22T08:56:14.503Z,4.83
2019-04-22T08:59:04.666Z,4.70
2019-04-22T09:01:29.971Z,4.90
2019-04-22T09:03:57.838Z,4.35
2019-04-22T09:09:06.435Z,4.12
2019-04-22T09:11:46.902Z,5.05
2019-04-22T09:14:22.167Z,5.08
2019-04-22T09:16:48.723Z,4.67
2019-04-22T09:19:17.947Z,4.92
2019-04-22T09:21:54.508Z,4.58
2019-04-22T09:24:23.220Z,4.40
2019-04-22T09:26:53.972Z,4.80
2019-04-22T09:29:35.696Z,4.67
2019-04-22T09:32:05.644Z,5.00
2019-04-22T09:34:41.682Z,5.15
2019-04-22T09:37:20.626Z,5.03
2019-04-22T09:39:41.538Z,5.20
2019-04-22T09:42:24.225Z,5.40
2019-04-22T09:45:04.293Z,4.92
2019-04-22T09:47:33.873Z,4.95
2019-04-22T09:50:12.637Z,4.45
2019-04-22T09:52:37.904Z,4.50
2019-04-22T09:57:37.859Z,4.33
2019-04-22T10:02:59.305Z,5.45
2019-04-22T10:05:28.906Z,4.78
2019-04-22T10:08:06.708Z,4.85
2019-04-22T10:10:41.482Z,4.60
2019-04-22T10:13:23.635Z,4.37
2019-04-22T10:15:46.833Z,4.70
2019-04-22T10:18:17.854Z,4.47
2019-04-22T10:20:51.852Z,4.08
2019-04-22T10:23:37.628Z,4.10
2019-04-22T10:26:04.609Z,3.42
2019-04-22T10:28:44.617Z,3.77
2019-04-22T10:31:28.290Z,3.98
2019-04-22T10:33:42.180Z,3.55
2019-04-22T10:36:05.852Z,3.30
2019-04-22T10:41:28.740Z,3.98
2019-04-22T10:43:57.584Z,3.87
2019-04-22T10:46:42.290Z,3.60
2019-04-22T10:49:18.265Z,3.40
2019-04-22T10:51:54.862Z,3.42
2019-04-22T10:54:27.387Z,3.98
2019-04-22T10:57:03.224Z,4.30
2019-04-22T10:59:34.388Z,4.03
2019-04-22T11:05:06.017Z,4.20
2019-04-22T11:07:44.038Z,4.08
2019-04-22T11:10:32.001Z,4.15
2019-04-22T11:12:47.208Z,4.28
2019-04-22T11:15:22.428Z,4.37
2019-04-22T11:17:51.445Z,4.30
2019-04-22T11:20:21.787Z,4.25
2019-04-22T11:22:54.122Z,3.80
2019-04-22T11:25:31.832Z,4.42
2019-04-22T11:28:05.555Z,4.05
2019-04-22T11:30:40.935Z,4.12
2019-04-22T11:33:50.173Z,4.60
2019-04-22T11:35:57.573Z,4.97
2019-04-22T11:38:29.147Z,5.05
2019-04-22T11:41:29.316Z,4.92
2019-04-22T11:44:09.649Z,5.17
2019-04-22T11:46:45.260Z,4.05
2019-04-22T11:49:14.183Z,4.15
2019-04-22T11:51:45.726Z,4.33
2019-04-22T11:54:23.412Z,4.50
2019-04-22T11:56:54.877Z,4.70
2019-04-22T11:59:26.851Z,5.50
2019-04-22T12:01:56.942Z,6.10
2019-04-22T12:04:38.139Z,3.92
2019-04-22T12:07:12.870Z,4.72
2019-04-22T12:09:45.828Z,4.72
2019-04-22T12:12:15.917Z,4.50
2019-04-22T12:14:48.029Z,4.53
2019-04-22T12:17:20.023Z,4.85
2019-04-22T12:20:18.405Z,4.35
2019-04-22T12:22:47.377Z,4.35
2019-04-22T12:25:34.715Z,4.50
2019-04-22T12:27:56.988Z,4.47
2019-04-22T12:30:33.270Z,4.58
2019-04-22T12:33:04.672Z,4.55
2019-04-22T12:35:40.123Z,5.08
2019-04-22T12:38:10.723Z,4.37
2019-04-22T12:40:55.075Z,4.58
2019-04-22T12:43:22.155Z,5.33
2019-04-22T12:45:58.309Z,4.53
2019-04-22T12:48:32.927Z,3.50
2019-04-22T12:51:04.914Z,4.97
2019-04-22T12:53:40.188Z,5.53
2019-04-22T12:56:12.690Z,5.25
2019-04-22T12:58:47.631Z,4.28
2019-04-22T13:01:17.003Z,5.00
2019-04-22T13:03:52.095Z,4.10
2019-04-22T13:06:23.955Z,4.35
2019-04-22T13:08:52.661Z,4.80
2019-04-22T13:11:30.845Z,4.70
2019-04-22T13:14:05.340Z,4.72
2019-04-22T13:16:47.257Z,4.87
2019-04-22T13:19:24.613Z,5.25
2019-04-22T13:21:58.644Z,4.92
2019-04-22T13:24:34.168Z,4.67
2019-04-22T13:27:10.979Z,4.80
2019-04-22T13:29:41.112Z,4.90
2019-04-22T13:32:10.909Z,3.83
2019-04-22T13:34:49.431Z,4.97
2019-04-22T13:37:16.976Z,5.25
2019-04-22T13:39:46.936Z,4.13
2019-04-22T13:42:21.696Z,4.90
2019-04-22T13:45:09.683Z,4.60
2019-04-22T13:47:55.315Z,4.50
2019-04-22T13:51:00.949Z,4.28
2019-04-22T13:58:04.139Z,4.50
2019-04-22T14:00:32.309Z,4.22
2019-04-22T14:03:22.385Z,4.33
2019-04-22T14:06:14.433Z,4.30
2019-04-22T14:08:47.138Z,3.30
2019-04-22T14:11:28.645Z,4.17
2019-04-22T14:14:02.904Z,3.90
2019-04-22T14:16:35.269Z,4.08
2019-04-22T14:19:10.021Z,4.22
2019-04-22T14:21:47.287Z,3.95
2019-04-22T14:24:15.824Z,3.60
2019-04-22T14:26:58.935Z,4.30
2019-04-22T14:29:26.279Z,3.92
2019-04-22T14:32:05.472Z,4.25
2019-04-22T14:34:34.380Z,2.65
2019-04-22T14:37:09.963Z,4.08
2019-04-22T14:39:41.974Z,3.85
2019-04-22T14:42:36.799Z,3.40
2019-04-22T14:45:30.437Z,3.72
2019-04-22T14:48:07.194Z,4.20
2019-04-22T14:50:32.821Z,3.90
2019-04-22T14:53:05.433Z,4.12
2019-04-22T14:55:21.469Z,4.30
2019-04-22T14:57:59.137Z,3.60
2019-04-22T15:00:29.514Z,3.90
2019-04-22T15:03:10.887Z,3.80
2019-04-22T15:05:42.202Z,3.47
2019-04-22T15:08:17.317Z,3.42
2019-04-22T15:10:49.711Z,4.05
2019-04-22T15:13:31.668Z,4.37
2019-04-22T15:16:18.251Z,3.80
2019-04-22T15:18:55.681Z,4.45
2019-04-22T15:21:56.621Z,3.92
2019-04-22T15:24:27.220Z,4.20
2019-04-22T15:27:00.493Z,3.60
2019-04-22T15:29:33.612Z,4.10
2019-04-22T15:32:05.345Z,3.65
2019-04-22T15:34:36.932Z,4.03
2019-04-22T15:37:16.059Z,3.85
2019-04-22T15:40:08.839Z,3.70
2019-04-22T15:42:41.476Z,3.87
2019-04-22T15:45:08.925Z,4.00
2019-04-22T15:47:39.630Z,3.27
2019-04-22T15:50:09.987Z,2.70
2019-04-22T15:52:56.985Z,4.15
2019-04-22T15:56:18.773Z,3.30
2019-04-22T15:58:55.533Z,3.33
2019-04-22T16:01:33.178Z,3.58
2019-04-22T16:04:00.649Z,3.83
2019-04-22T16:06:30.157Z,3.65
2019-04-22T16:09:04.821Z,3.40
2019-04-22T16:11:38.076Z,3.33
2019-04-22T16:14:10.553Z,3.35
2019-04-22T16:16:48.459Z,3.02
2019-04-22T16:19:17.156Z,3.20
2019-04-22T16:21:53.060Z,3.35
2019-04-22T16:24:36.196Z,2.70
2019-04-22T16:27:08.748Z,3.52
2019-04-22T16:29:41.223Z,3.35
2019-04-22T16:32:13.654Z,3.55
2019-04-22T16:34:42.399Z,3.20
2019-04-22T16:37:25.119Z,3.65
2019-04-22T16:40:03.065Z,3.40
2019-04-22T16:42:56.934Z,3.40
2019-04-22T16:45:27.324Z,3.67
2019-04-22T16:47:55.990Z,3.20
2019-04-22T16:50:27.323Z,3.20
2019-04-22T16:53:02.295Z,3.60
2019-04-22T16:55:31.072Z,3.52
2019-04-22T16:58:10.689Z,3.10
2019-04-22T17:00:46.949Z,2.92
2019-04-22T17:03:26.880Z,3.80
2019-04-22T17:05:59.135Z,3.52
2019-04-22T17:08:46.740Z,3.47
2019-04-22T17:11:25.599Z,3.30
2019-04-22T17:13:57.451Z,4.03
2019-04-22T17:16:30.594Z,3.33
2019-04-22T17:19:13.212Z,3.20
2019-04-22T17:21:45.615Z,3.62
2019-04-22T17:24:19.508Z,3.60
2019-04-22T17:26:54.624Z,3.60
2019-04-22T17:29:41.519Z,4.17
2019-04-22T17:32:17.706Z,3.58
2019-04-22T17:34:45.648Z,3.72
2019-04-22T17:37:22.098Z,3.60
2019-04-22T17:40:11.671Z,3.55
2019-04-22T17:42:46.184Z,3.80
2019-04-22T17:45:40.211Z,3.98
2019-04-22T17:48:23.916Z,4.00
2019-04-22T17:51:03.534Z,3.92
2019-04-22T17:53:33.412Z,3.70
2019-04-22T17:56:32.432Z,3.87
2019-04-22T17:59:10.549Z,3.75
2019-04-22T18:01:29.528Z,4.05
2019-04-22T18:03:49.643Z,3.65
2019-04-22T18:06:42.799Z,3.85
2019-04-22T18:09:04.918Z,3.52
2019-04-22T18:12:00.864Z,3.72
2019-04-22T18:14:30.279Z,3.77
2019-04-22T18:16:49.866Z,3.58
2019-04-22T18:19:28.897Z,3.70
2019-04-22T18:21:57.263Z,3.52
2019-04-22T18:24:21.947Z,3.42
2019-04-22T18:27:07.207Z,3.57
2019-04-22T18:29:32.974Z,4.00
2019-04-22T18:32:07.182Z,3.75
2019-04-22T18:34:39.848Z,3.60
2019-04-22T18:37:15.655Z,3.57
2019-04-22T18:39:52.688Z,3.98
2019-04-22T18:42:17.373Z,3.77
2019-04-22T18:45:00.223Z,3.70
2019-04-22T18:47:25.280Z,3.80
2019-04-22T18:49:56.551Z,3.75
2019-04-22T18:52:40.245Z,3.75
2019-04-22T18:55:14.660Z,3.65
2019-04-22T18:58:02.709Z,3.62
2019-04-22T19:00:41.745Z,3.83
2019-04-22T19:03:58.211Z,3.60
2019-04-22T19:06:52.319Z,3.50
2019-04-22T19:09:43.874Z,3.90
2019-04-22T19:12:01.830Z,3.60
2019-04-22T19:14:34.648Z,4.00
2019-04-22T19:17:12.082Z,3.47
2019-04-22T19:19:33.355Z,4.30
2019-04-22T19:22:02.262Z,3.98
2019-04-22T19:24:39.867Z,3.72
2019-04-22T19:27:15.334Z,3.67
2019-04-22T19:29:55.873Z,3.65
2019-04-22T19:32:24.423Z,3.75
2019-04-22T19:35:14.027Z,3.50
2019-04-22T19:37:48.100Z,4.00
2019-04-22T19:40:30.344Z,4.22
2019-04-22T19:43:05.822Z,4.05
2019-04-22T19:45:29.137Z,3.80
2019-04-22T19:48:03.397Z,4.45
2019-04-22T19:50:38.009Z,4.65
2019-04-22T19:53:10.686Z,4.70
2019-04-22T19:55:43.177Z,4.53
2019-04-22T19:58:17.720Z,4.35
2019-04-22T20:00:52.040Z,4.30
2019-04-22T20:03:36.349Z,4.33
2019-04-22T20:06:26.860Z,3.67
2019-04-22T20:08:59.786Z,4.08
2019-04-22T20:11:35.238Z,3.50
2019-04-22T20:16:34.378Z,3.83
2019-04-22T20:19:12.397Z,4.33
2019-04-22T20:21:43.530Z,3.95
2019-04-22T20:24:05.463Z,4.10
2019-04-22T20:26:50.160Z,3.62
2019-04-22T20:29:27.079Z,3.83
2019-04-22T20:31:58.757Z,3.70
2019-04-22T20:34:31.054Z,4.33
2019-04-22T20:39:38.023Z,4.35
2019-04-22T20:44:52.025Z,4.08
2019-04-22T20:47:18.089Z,4.12
2019-04-22T20:49:56.221Z,4.42
2019-04-22T20:52:36.740Z,4.37
2019-04-22T20:54:58.585Z,4.50
2019-04-22T20:57:34.927Z,4.05
2019-04-22T21:00:08.014Z,4.37
2019-04-22T21:02:37.473Z,4.47
2019-04-22T21:05:13.516Z,4.03
2019-04-22T21:07:48.002Z,4.20
2019-04-22T21:10:22.821Z,4.15
2019-04-22T21:12:50.953Z,4.67
2019-04-22T21:15:32.666Z,4.87
2019-04-22T21:17:59.557Z,4.67
2019-04-22T21:20:41.435Z,4.70
2019-04-22T21:23:14.308Z,5.08
2019-04-22T21:25:37.294Z,5.10
2019-04-22T21:28:21.425Z,4.62
2019-04-22T21:30:48.124Z,5.12
2019-04-22T21:33:15.190Z,4.67
2019-04-22T21:36:16.851Z,5.10
2019-04-22T21:38:32.823Z,4.70
2019-04-22T21:41:07.854Z,4.87
2019-04-22T21:43:40.409Z,4.85
2019-04-22T21:46:12.999Z,4.92
2019-04-22T21:48:44.900Z,4.70
2019-04-22T21:51:19.182Z,5.37
2019-04-22T21:54:04.044Z,4.62
2019-04-22T21:59:10.978Z,4.17
2019-04-22T22:01:49.765Z,4.53
2019-04-22T22:04:15.198Z,4.12
2019-04-22T22:06:39.621Z,4.53
2019-04-22T22:09:15.252Z,4.13
2019-04-22T22:11:46.238Z,4.33
2019-04-22T22:14:21.347Z,4.60
2019-04-22T22:16:41.604Z,4.37
2019-04-22T22:19:20.196Z,4.60
2019-04-22T22:22:32.713Z,4.60
2019-04-22T22:24:34.355Z,3.80
2019-04-22T22:27:01.508Z,4.60
2019-04-22T22:29:43.643Z,5.17
2019-04-22T22:32:05.331Z,4.70
2019-04-22T22:34:34.553Z,4.17
2019-04-22T22:37:00.357Z,4.25
2019-04-22T22:39:35.471Z,4.78
2019-04-22T22:41:54.346Z,4.53
2019-04-22T22:44:33.344Z,4.50
2019-04-22T22:47:16.291Z,4.80
2019-04-22T22:49:52.091Z,5.05
2019-04-22T22:52:45.123Z,4.50
2019-04-22T22:55:07.339Z,4.53
2019-04-22T22:57:35.209Z,4.35
2019-04-22T23:00:08.458Z,5.22
2019-04-22T23:02:52.239Z,4.53
2019-04-22T23:05:09.632Z,4.78
2019-04-22T23:07:46.334Z,4.40
2019-04-22T23:10:11.279Z,4.45
2019-04-22T23:12:51.547Z,4.55
2019-04-22T23:15:20.422Z,4.30
2019-04-22T23:17:39.766Z,4.12
2019-04-22T23:20:28.853Z,4.60
2019-04-22T23:23:15.819Z,4.03
2019-04-22T23:25:53.587Z,4.15
2019-04-22T23:28:19.310Z,4.50
2019-04-22T23:30:57.031Z,3.92
2019-04-22T23:33:42.474Z,4.25
2019-04-22T23:36:15.046Z,4.05
2019-04-22T23:38:57.265Z,4.15
2019-04-22T23:41:50.452Z,3.90
2019-04-22T23:44:24.029Z,3.62
2019-04-22T23:46:56.690Z,4.30
2019-04-22T23:49:28.173Z,3.50
2019-04-22T23:52:13.033Z,4.03
2019-04-22T23:54:53.777Z,4.20
2019-04-22T23:57:16.702Z,3.92
2019-04-22T23:59:49.842Z,3.87
